Date,TemperatureHighF,TemperatureAvgF,TemperatureLowF,DewpointHighF,DewpointAvgF,DewpointLowF,HumidityHigh,HumidityAvg,HumidityLow,PressureMaxIn,PressureMinIn,WindSpeedMaxMPH,WindSpeedAvgMPH,GustSpeedMaxMPH,PrecipitationSumIn
2013-1-1,76,66,59,66,62,57,97,87,68,30.14,29.97,7,1,13,0.00
2013-1-2,77,68,62,70,65,60,96,90,77,29.99,29.91,8,1,10,0.00
2013-1-3,69,65,62,68,64,62,100,97,92,30.08,29.94,19,6,23,0.01
2013-1-4,66,64,62,65,63,61,99,98,97,30.16,30.05,20,13,22,0.01
2013-1-5,72,67,62,67,64,59,98,91,77,30.19,30.11,14,8,16,0.01
2013-1-6,75,68,64,71,67,64,100,96,85,30.13,29.99,16,3,19,0.09
2013-1-7,70,68,64,67,64,62,98,90,82,30.13,30.03,17,11,22,0.03
2013-1-8,74,71,69,71,69,67,97,94,88,30.15,30.04,10,3,12,0.02
2013-1-9,79,73,70,74,71,69,99,93,83,30.24,30.13,11,4,14,0.01
2013-1-10,77,73,70,72,70,68,97,90,81,30.25,30.16,12,6,16,0.01
2013-1-11,78,72,68,72,70,67,99,92,80,30.21,30.11,9,2,13,0.00
2013-1-12,77,72,68,71,69,67,99,90,77,30.13,30.04,8,3,11,0.01
2013-1-13,75,71,69,69,68,66,95,90,82,30.08,29.99,8,3,11,0.01
2013-1-14,78,72,67,71,68,66,97,89,74,30.10,30.06,8,1,10,0.00
2013-1-15,78,73,69,72,69,67,97,89,77,30.08,29.99,10,2,13,0.01
2013-1-16,78,71,67,71,68,66,98,90,72,30.04,29.95,9,2,11,0.01
2013-1-17,80,69,58,71,65,51,95,86,66,29.99,29.84,28,11,33,0.00
2013-1-18,68,59,47,62,54,43,90,83,74,30.16,29.98,24,14,27,0.04
2013-1-19,71,68,66,66,63,59,90,83,75,30.19,30.05,18,8,26,0.04
2013-1-20,69,66,63,67,64,61,98,93,85,30.08,29.98,18,9,21,0.01
2013-1-21,70,67,66,67,64,61,96,90,79,30.01,29.92,16,7,18,0.00
2013-1-22,65,62,59,62,54,49,89,76,65,30.18,29.95,25,14,28,0.00
2013-1-23,62,59,56,54,51,45,84,74,66,30.26,30.17,17,10,19,0.00
2013-1-24,69,60,53,58,53,47,91,76,62,30.24,30.14,14,5,15,0.00
2013-1-25,70,62,56,60,57,54,95,83,60,30.22,30.09,12,4,17,0.00
2013-1-26,68,63,58,62,57,52,95,80,70,30.19,30.09,12,3,14,0.00
2013-1-27,73,67,60,67,62,59,96,87,67,30.23,30.14,16,7,21,0.00
2013-1-28,74,71,68,68,66,65,97,86,79,30.27,30.19,13,8,17,0.00
2013-1-29,77,71,66,71,68,65,99,92,80,30.19,30.06,14,3,17,0.00
2013-1-30,76,72,68,70,68,66,96,86,73,30.05,29.83,12,3,17,0.01
2013-1-31,71,61,57,67,49,44,87,66,52,30.11,29.85,23,10,25,0.00
2013-2-1,65,58,53,53,44,37,79,61,38,30.24,30.10,22,9,23,0.00
2013-2-2,68,62,57,58,51,45,86,69,47,30.21,30.05,11,5,15,0.00
2013-2-3,68,61,53,57,52,42,89,73,55,30.09,29.97,17,9,21,0.00
2013-2-4,67,59,51,57,50,45,88,72,54,30.05,29.94,15,5,18,0.00
2013-2-5,74,63,55,61,55,49,93,76,59,30.02,29.90,8,2,12,0.00
2013-2-6,76,68,62,68,64,60,95,88,73,30.03,29.94,10,2,14,0.00
2013-2-7,77,72,67,70,66,63,93,84,76,30.01,29.80,10,3,15,0.00
2013-2-8,74,68,65,65,64,62,96,86,69,29.99,29.79,13,7,17,0.00
2013-2-9,70,66,60,64,61,59,95,84,71,30.13,29.97,17,9,19,0.00
2013-2-10,75,70,66,63,60,56,82,72,65,30.21,30.11,16,8,21,0.00
2013-2-11,77,72,68,68,66,63,89,82,72,30.16,30.02,12,4,15,0.00
2013-2-12,82,72,67,72,68,65,96,87,62,30.04,29.87,12,4,15,0.00
2013-2-13,85,74,65,72,68,61,97,84,58,29.90,29.74,20,10,28,0.00
2013-2-14,70,65,61,66,62,59,97,89,82,29.94,29.85,19,6,23,0.34
2013-2-15,68,62,58,62,59,57,98,91,77,29.98,29.87,19,6,21,0.21
2013-2-16,66,62,54,60,51,39,88,71,49,29.97,29.79,29,15,34,0.01
2013-2-17,54,48,43,44,31,26,72,53,39,30.25,29.97,30,15,32,0.00
2013-2-18,65,57,47,55,43,29,74,60,43,30.28,30.15,15,8,18,0.00
2013-2-19,75,66,57,64,57,51,92,75,56,30.15,29.99,11,3,18,0.00
2013-2-20,68,64,61,62,60,58,94,85,76,30.05,29.96,13,6,17,0.00
2013-2-21,78,71,65,69,66,62,95,87,72,30.03,29.94,10,4,13,0.00
2013-2-22,78,72,68,73,70,67,99,93,82,30.03,29.95,13,4,16,0.01
2013-2-23,86,75,69,73,70,68,98,87,56,29.96,29.80,13,4,18,0.01
2013-2-24,75,70,68,72,69,67,98,94,85,29.90,29.80,15,7,17,0.00
2013-2-25,83,74,68,74,71,67,99,90,63,29.85,29.71,9,2,14,0.06
2013-2-26,81,75,69,73,71,65,96,88,73,29.78,29.68,18,7,25,0.06
2013-2-27,70,67,65,66,62,59,94,85,69,29.89,29.78,18,8,21,0.00
2013-2-28,72,67,57,64,56,47,90,69,53,29.91,29.78,17,8,24,0.00
2013-3-1,70,63,55,55,47,41,79,56,49,29.90,29.81,17,12,19,0.00
2013-3-2,61,57,50,45,41,35,72,56,44,29.93,29.83,29,17,31,0.00
2013-3-3,55,51,42,41,38,34,81,62,57,30.06,29.88,29,23,30,0.00
2013-3-4,58,53,43,43,38,32,77,58,47,30.16,30.04,21,12,21,0.00
2013-3-5,71,63,51,62,52,41,91,67,52,30.11,29.93,10,4,14,0.00
2013-3-6,68,64,55,62,49,38,94,60,37,30.03,29.84,25,14,29,0.00
2013-3-7,64,59,46,50,46,41,81,64,44,30.12,30.00,17,12,18,0.00
2013-3-8,64,60,53,54,51,49,92,73,59,30.14,30.05,14,7,17,0.00
2013-3-9,68,64,58,56,54,52,88,69,61,30.14,30.03,11,8,16,0.00
2013-3-10,74,68,65,62,57,54,75,66,61,30.10,30.02,14,8,18,0.00
2013-3-11,76,71,67,65,61,57,82,71,65,30.05,29.87,11,5,17,0.00
2013-3-12,70,70,68,65,64,64,86,82,80,29.90,29.81,6,5,11,0.00
2013-3-13,65,63,57,54,51,45,84,66,48,30.06,29.97,20,12,23,0.00
2013-3-14,63,60,56,49,48,47,72,66,61,30.15,30.04,15,10,15,0.00
2013-3-15,65,59,52,49,47,37,74,64,41,30.20,30.08,15,9,16,0.00
2013-3-16,73,66,55,60,53,47,84,62,52,30.12,29.98,10,2,16,0.00
2013-3-17,74,68,58,63,59,54,89,73,58,30.08,29.94,12,4,16,0.00
2013-3-18,76,71,66,69,66,63,90,83,76,29.99,29.84,11,4,13,0.00
2013-3-19,79,73,67,69,67,63,94,82,65,29.93,29.83,10,5,15,0.00
2013-3-20,73,72,70,67,67,66,89,84,80,29.90,29.71,9,5,10,0.00
2013-3-21,71,66,57,67,54,39,87,67,40,29.87,29.74,17,5,21,0.00
2013-3-22,73,68,59,61,54,50,85,63,54,29.94,29.82,13,3,14,0.00
2013-3-23,83,73,69,74,66,59,97,81,64,29.91,29.69,19,4,22,0.00
2013-3-24,83,78,73,72,71,69,93,79,69,29.80,29.56,27,13,33,0.00
2013-3-25,81,76,66,72,60,40,73,59,32,29.92,29.64,27,20,27,0.00
2013-3-26,70,41,0,48,27,0,100,63,40,30.11,29.91,23,10,29,0.00
2013-3-27,58,57,52,45,40,36,67,54,47,30.20,30.09,18,13,18,0.00
2013-3-28,64,58,51,48,45,41,86,62,44,30.21,30.11,13,8,17,0.00
2013-3-29,68,63,56,53,48,46,87,59,48,30.24,30.14,10,6,13,0.00
2013-3-30,75,68,59,60,55,50,86,64,56,30.19,30.07,14,5,17,0.00
2013-3-31,77,69,63,68,60,-100,85,76,65,30.10,29.93,9,5,17,0.00
2013-4-1,80,74,67,69,66,62,88,76,57,29.96,29.84,17,8,24,0.01
2013-4-2,76,73,66,68,65,62,93,76,68,30.02,29.91,15,7,17,0.01
2013-4-3,80,74,71,72,68,63,91,80,74,30.01,29.91,13,6,16,0.00
2013-4-4,75,73,70,72,69,65,96,87,78,29.99,29.78,20,6,29,0.02
2013-4-5,75,70,65,69,65,63,95,83,78,29.87,29.72,23,6,26,0.02
2013-4-6,72,67,61,65,62,58,93,85,65,30.04,29.87,23,16,25,0.01
2013-4-7,76,72,70,66,64,62,82,76,65,30.10,29.97,12,7,15,0.00
2013-4-8,76,73,68,69,66,65,94,81,71,30.08,29.98,10,5,14,0.00
2013-4-9,80,76,72,71,68,65,90,76,69,30.13,30.00,11,6,16,0.00
2013-4-10,81,77,72,74,70,65,89,78,71,30.05,29.94,13,6,15,0.00
2013-4-11,82,65,0,74,60,0,100,87,76,29.94,29.79,15,6,19,0.00
2013-4-12,87,81,76,76,74,73,93,80,63,29.84,29.74,16,8,24,0.00
2013-4-13,84,78,72,74,70,66,92,79,73,29.92,29.79,13,8,18,0.00
2013-4-14,82,76,72,77,72,66,95,87,82,29.91,29.76,14,8,17,0.05
2013-4-15,80,77,70,74,70,66,92,80,62,30.00,29.85,11,5,13,0.01
2013-4-16,80,78,76,74,70,69,83,78,75,30.09,29.97,16,6,16,0.00
2013-4-17,78,76,74,71,70,68,88,80,71,30.07,29.98,10,4,15,0.00
2013-4-18,83,79,73,75,72,69,90,79,72,30.00,29.91,11,6,15,0.00
2013-4-19,85,81,77,77,75,74,94,83,77,29.96,29.83,13,8,19,0.00
2013-4-20,79,72,66,75,69,63,93,89,87,30.03,29.88,20,12,24,0.00
2013-4-21,79,71,67,73,67,64,91,90,78,30.04,29.93,17,13,17,0.00
2013-4-22,75,73,70,72,70,67,97,89,81,29.99,29.90,23,11,32,0.00
2013-4-23,76,73,71,68,67,64,88,81,69,30.03,29.91,18,12,22,0.00
2013-4-24,71,71,71,66,66,66,84,84,84,30.08,29.99,14,14,14,0.00
2013-4-25,71,12,0,66,11,0,100,97,84,30.13,30.01,14,2,14,0.00
2013-4-26,80,48,0,71,43,0,100,86,66,30.17,30.07,12,4,16,0.00
2013-4-27,79,75,73,71,69,67,88,81,75,30.15,30.05,11,5,20,0.09
2013-4-28,80,76,74,70,66,-100,81,75,67,30.07,29.94,11,6,17,0.08
2013-4-29,83,78,74,72,69,66,83,74,67,29.97,29.83,12,6,18,0.00
2013-4-30,83,78,73,75,72,70,91,82,74,29.93,29.86,10,5,15,0.00
2013-5-1,78,76,73,72,71,70,91,86,82,29.94,29.86,13,5,14,0.04
2013-5-2,77,74,70,72,71,68,94,88,84,29.88,29.74,12,5,19,0.17
2013-5-3,75,73,70,73,71,69,98,91,85,29.77,29.54,20,6,25,0.13
2013-5-4,81,75,70,72,71,68,93,87,74,29.70,29.59,12,4,16,0.05
2013-5-5,75,75,75,71,71,71,87,87,87,29.83,29.65,10,10,10,0.00
2013-5-6,79,74,67,71,64,59,87,73,54,29.91,29.81,17,12,24,0.00
2013-5-7,79,74,62,63,60,58,86,63,54,29.97,29.88,17,11,17,0.00
2013-5-8,83,75,66,68,64,61,90,68,53,30.05,29.93,16,7,17,0.00
2013-5-9,77,75,72,70,68,66,82,77,74,30.08,29.99,14,4,15,0.00
2013-5-10,85,78,74,77,70,-100,95,81,75,30.05,29.93,10,5,15,0.00
2013-5-11,86,81,74,78,75,72,92,82,73,29.98,29.86,12,5,17,0.00
2013-5-12,87,80,73,77,73,-100,98,81,62,29.96,29.85,16,6,17,0.00
2013-5-13,79,75,72,73,68,61,91,78,62,30.04,29.90,17,9,21,0.00
2013-5-14,77,74,70,63,61,58,78,65,53,30.13,30.03,12,8,16,0.00
2013-5-15,81,72,0,65,59,0,100,65,54,30.15,30.03,13,4,15,0.00
2013-5-16,82,74,73,67,42,-100,75,65,58,30.07,29.96,13,6,14,0.00
2013-5-17,83,78,73,72,64,-100,89,73,67,30.03,29.95,14,8,17,0.00
2013-5-18,83,80,77,75,73,71,89,79,75,30.05,29.96,13,9,18,0.00
2013-5-19,83,80,78,75,73,72,85,81,74,30.03,29.93,13,9,17,0.00
2013-5-20,78,78,78,72,72,72,83,83,83,30.01,30.01,7,7,7,0.00
2013-5-24,87,81,75,76,74,73,94,80,63,30.01,29.92,10,6,15,0.00
2013-5-25,82,64,0,74,56,0,100,78,57,30.13,30.00,17,4,19,0.00
2013-5-27,81,78,77,69,68,68,75,73,67,30.07,30.04,12,7,16,0.00
2013-5-28,81,78,77,73,69,68,78,75,75,30.08,30.01,16,7,17,0.00
2013-5-30,81,78,72,76,74,70,96,86,78,30.07,30.04,19,10,24,0.39
2013-6-4,87,82,77,78,75,73,91,81,69,29.95,29.90,10,4,17,0.39
2013-6-10,0,0,0,0,0,0,100,100,100,30.00,29.96,0,0,0,0.00
2013-6-11,89,62,0,82,58,0,100,89,77,30.01,29.94,8,2,14,0.10
2013-6-12,88,83,78,81,78,75,93,85,74,30.01,29.93,8,3,13,0.00
2013-6-13,90,84,0,80,76,0,100,79,70,29.96,29.81,9,4,16,0.00
2013-6-14,90,86,77,77,75,73,96,72,59,29.85,29.76,17,8,20,0.00
2013-6-15,88,83,79,79,76,74,90,80,66,29.99,29.84,17,9,23,0.00
2013-6-16,87,82,80,79,76,74,87,82,76,30.03,29.96,12,9,16,0.00
2013-6-17,81,81,81,77,77,77,87,87,87,29.99,29.98,6,6,6,0.00
2013-6-22,87,85,84,78,76,74,77,75,71,30.06,29.98,10,6,11,0.00
2013-6-23,87,83,80,78,76,75,89,80,73,30.07,29.98,16,5,17,0.04
2013-6-24,89,84,79,79,77,76,92,81,72,30.12,30.02,11,5,14,0.04
2013-6-25,87,85,82,78,77,76,87,78,72,30.08,29.98,12,6,14,0.00
2013-6-26,88,84,81,81,78,76,91,83,76,30.01,29.94,11,6,16,0.03
2013-6-27,90,83,81,80,77,76,86,83,72,29.97,29.85,10,4,14,0.01
2013-6-28,93,84,78,80,76,73,88,80,59,29.89,29.76,10,6,16,0.00
2013-6-29,89,83,80,80,75,73,91,78,70,29.82,29.76,11,8,19,0.01
2013-7-1,76,76,75,74,74,73,94,94,93,29.96,29.87,7,6,10,0.10
2013-7-2,76,76,76,74,74,74,94,94,94,30.03,29.91,7,7,7,0.10
2013-7-3,76,76,76,74,74,74,94,94,94,30.02,29.99,7,7,7,0.00
2013-7-6,86,86,86,80,79,78,83,79,78,30.06,30.05,11,7,12,0.00
2013-7-7,83,83,83,77,77,77,82,82,82,30.07,29.98,4,4,4,0.00
2013-7-8,88,83,83,79,76,-100,82,80,74,30.09,30.01,9,5,13,0.00
2013-7-9,85,83,81,77,76,75,87,81,75,30.10,29.99,12,6,17,0.00
2013-7-10,87,82,81,78,74,-100,85,79,74,30.02,29.91,11,4,15,0.00
2013-7-11,90,85,81,81,78,76,88,79,73,29.97,29.85,14,5,19,0.00
2013-7-12,89,85,80,80,78,75,87,79,72,29.88,29.80,10,4,15,0.00
2013-7-13,86,80,76,78,76,74,94,85,78,29.93,29.85,10,4,14,0.00
2013-7-14,84,79,76,78,75,74,92,87,79,30.02,29.91,13,5,18,0.01
2013-7-15,82,79,77,77,75,74,93,88,82,30.04,29.96,12,6,15,0.01
2013-7-16,80,80,80,75,75,75,86,86,86,30.04,30.01,6,6,6,0.00
2013-7-19,88,83,77,81,79,74,91,86,78,30.06,29.96,11,4,15,0.00
2013-7-20,89,82,78,83,76,-100,96,86,79,30.03,29.94,6,2,13,0.02
2013-7-21,89,82,78,81,77,74,91,85,75,30.05,29.96,11,4,17,0.01
2013-7-22,91,81,78,81,76,73,93,85,69,30.05,29.98,10,7,18,0.32
2013-7-23,88,81,78,78,76,74,95,85,72,30.01,29.85,9,5,14,0.19
2013-7-24,86,83,78,79,77,76,93,83,77,29.92,29.80,10,1,13,0.76
2013-7-25,83,81,74,79,77,73,97,87,81,29.90,29.79,11,2,16,0.21
2013-7-26,85,82,77,79,78,76,97,88,79,29.93,29.85,9,1,13,0.01
2013-7-27,88,83,79,80,78,77,95,85,75,29.91,29.82,6,1,13,0.00
2013-7-28,90,84,80,80,77,74,91,80,65,29.99,29.85,10,1,17,0.00
2013-7-29,86,82,80,77,76,75,86,83,75,30.05,29.95,2,1,2,0.00
2013-7-30,88,88,88,79,79,79,76,76,76,30.05,30.05,1,1,1,0.00
2013-7-31,90,86,80,81,80,78,93,81,74,30.05,29.94,8,1,13,0.00
2013-8-1,90,85,81,80,78,77,91,81,72,29.98,29.89,5,0,13,0.00
2013-8-2,86,83,80,78,77,75,90,81,73,29.94,29.85,12,1,15,0.00
2013-8-3,87,82,77,81,77,74,94,84,79,30.01,29.90,16,6,31,0.14
2013-8-4,85,82,79,79,76,74,88,83,78,30.00,29.90,16,8,16,0.04
2013-8-5,85,85,85,78,78,78,80,80,80,29.93,29.88,0,0,0,0.04
2013-8-6,88,84,78,80,78,76,95,83,77,29.90,29.83,2,0,9,0.00
2013-8-7,90,85,82,82,79,78,93,81,71,29.92,29.84,6,0,11,0.00
2013-8-8,90,86,84,82,80,79,90,82,75,29.97,29.88,9,1,13,0.00
2013-8-9,88,86,83,80,79,77,84,80,71,29.99,29.91,6,1,13,0.00
2013-8-10,90,87,82,82,80,78,92,79,73,30.07,29.99,10,1,13,0.00
2013-8-11,90,86,80,81,79,78,95,81,73,30.09,30.03,3,0,10,0.00
2013-8-16,90,82,84,80,70,-100,86,76,71,29.98,29.90,6,2,13,0.00
2013-8-17,90,86,81,83,81,79,97,85,78,30.01,29.94,6,2,12,0.00
2013-8-18,89,84,78,82,77,-100,95,83,76,30.05,29.96,8,2,15,0.43
2013-8-19,90,81,82,82,64,-100,92,79,74,30.02,29.91,3,1,12,0.09
2013-8-20,90,85,82,81,76,-100,92,80,74,30.02,29.92,6,1,12,0.00
2013-8-21,88,85,81,81,79,77,91,82,80,30.04,29.96,5,0,10,0.00
2013-8-22,83,83,83,77,77,77,82,82,82,30.01,29.98,0,0,0,0.00
2013-8-23,88,85,82,79,78,77,89,81,71,29.95,29.90,4,1,15,0.00
2013-8-24,87,82,78,80,77,75,91,86,77,30.03,29.92,20,5,25,0.00
2013-8-25,86,79,78,78,72,-100,90,84,76,30.08,29.99,14,8,14,0.00
2013-8-26,83,83,83,77,77,77,82,82,82,29.98,29.96,2,2,2,0.00
2013-8-27,86,84,82,77,75,73,82,76,66,29.98,29.92,9,2,13,0.00
2013-8-28,84,83,83,73,73,73,71,71,69,29.95,29.91,0,0,4,0.00
2013-8-29,89,84,79,78,75,73,90,73,67,29.95,29.85,5,0,10,0.00
2013-9-6,90,84,81,80,77,76,84,81,72,29.98,29.89,10,4,16,0.00
2013-9-7,87,82,78,78,76,72,97,82,69,29.94,29.85,11,4,13,0.02
2013-9-8,86,82,81,77,73,-100,89,77,71,29.89,29.81,12,3,17,0.01
2013-9-9,87,83,81,77,75,74,82,78,70,29.95,29.85,12,4,17,0.00
2013-9-10,86,83,81,77,75,71,82,78,63,30.03,29.92,11,6,17,0.00
2013-9-11,86,84,82,77,76,74,82,78,71,30.01,29.93,6,2,13,0.00
2013-9-12,86,83,80,79,76,75,87,79,72,29.95,29.83,3,0,12,0.03
2013-9-13,88,83,78,78,75,74,94,79,67,29.83,29.72,2,0,10,0.01
2013-9-14,90,84,79,79,76,75,93,77,67,29.86,29.75,1,0,9,0.00
2013-9-15,83,83,82,79,78,78,91,86,85,30.00,29.94,18,16,18,0.01
2013-9-16,87,83,82,78,77,75,85,81,71,30.01,29.92,18,8,18,0.01
2013-9-17,85,82,76,78,76,72,94,82,75,30.00,29.90,10,4,25,0.16
2013-9-18,83,80,80,76,76,74,88,87,79,29.95,29.89,3,2,5,0.16
2013-9-19,85,82,82,77,74,73,81,77,72,29.98,29.90,7,2,17,0.01
2013-9-20,82,82,80,73,73,69,75,75,70,29.95,29.91,2,2,4,0.00
2013-9-21,86,83,78,74,72,71,85,70,65,29.83,29.70,5,1,10,0.00
2013-9-22,90,83,77,77,71,-100,93,71,61,29.74,29.67,11,2,15,0.00
2013-9-23,86,82,79,80,78,77,95,89,80,29.90,29.83,2,0,8,0.07
2013-9-24,87,82,78,78,77,75,95,86,73,29.88,29.76,18,2,21,0.03
2013-9-25,81,80,77,76,74,72,92,83,78,29.77,29.70,18,3,20,0.00
2013-9-26,87,83,79,78,77,76,95,83,70,29.77,29.67,18,11,25,0.00
2013-9-27,81,78,74,76,74,73,98,88,82,29.86,29.77,19,11,21,0.00
2013-9-28,84,80,78,75,73,70,87,80,70,29.93,29.83,19,12,19,0.00
2013-9-29,82,79,76,74,70,-100,91,77,73,29.91,29.83,13,8,17,0.00
2013-9-30,85,80,76,75,73,72,94,79,68,29.95,29.84,11,3,13,0.00
2013-10-1,80,80,80,73,73,73,80,80,80,29.94,29.94,1,1,1,0.00
2013-10-4,82,82,81,75,73,72,81,76,73,30.00,29.94,1,0,8,0.00
2013-10-5,84,82,79,77,75,73,86,79,73,29.98,29.90,8,2,15,0.00
2013-10-6,87,83,79,78,76,74,90,79,71,29.92,29.81,5,2,10,0.00
2013-10-7,87,82,78,77,76,74,90,82,69,29.82,29.71,8,1,20,0.14
2013-10-8,87,81,76,77,76,73,96,85,70,29.83,29.71,13,4,17,0.14
2013-10-9,82,82,82,76,76,76,82,82,82,29.82,29.82,10,10,10,0.00
2013-10-10,79,78,77,70,68,67,75,73,70,29.94,29.91,13,6,15,0.00
2013-10-11,82,78,73,70,68,66,90,70,61,29.98,29.88,4,1,8,0.00
2013-10-12,82,79,74,71,67,63,87,68,57,29.97,29.89,5,0,12,0.00
2013-10-13,80,77,75,70,64,-100,85,67,57,30.01,29.93,13,6,17,0.00
2013-10-14,80,79,74,73,71,70,93,77,73,29.97,29.86,17,10,20,0.00
2013-10-15,82,76,70,74,72,70,100,89,77,29.92,29.82,11,1,11,0.00
2013-10-16,78,78,78,73,73,73,86,86,86,29.88,29.84,0,0,0,0.00
2013-10-17,83,80,77,76,74,72,91,80,73,29.92,29.83,3,0,8,0.00
2013-10-18,85,81,76,76,75,74,94,81,72,29.93,29.84,3,0,10,0.00
2013-10-19,86,83,78,78,77,75,92,81,76,29.91,29.80,10,3,14,0.00
2013-10-20,83,80,76,77,73,-100,96,84,82,29.89,29.80,15,9,19,0.00
2013-10-21,87,82,77,80,77,75,95,84,78,29.94,29.83,13,5,14,0.00
2013-10-22,89,84,78,79,78,76,94,81,68,29.88,29.73,8,2,13,0.00
2013-10-26,75,73,69,63,60,54,81,66,48,30.12,30.02,10,5,13,0.00
2013-10-27,73,70,66,64,59,-100,90,71,65,30.05,30.00,13,8,16,0.00
2013-10-28,79,73,69,68,62,-100,89,71,64,30.11,30.01,13,6,15,0.00
2013-10-29,81,77,71,70,68,65,91,72,65,30.14,30.06,11,4,14,0.00
2013-10-30,81,78,74,72,70,69,91,74,69,30.16,30.05,9,2,10,0.00
2013-10-31,84,80,78,74,71,69,80,74,67,30.06,29.93,5,3,13,0.00
2013-11-1,88,82,75,76,75,72,93,78,62,29.94,29.79,11,4,14,0.00
2013-11-2,80,71,67,72,68,65,95,88,73,29.87,29.73,16,7,22,0.00
2013-11-3,74,70,66,65,57,-100,90,66,51,30.01,29.86,20,13,23,0.00
2013-11-4,77,75,72,65,62,59,68,64,57,30.08,30.00,13,7,28,0.00
2013-11-5,79,75,72,71,69,64,94,82,66,30.08,30.02,13,7,23,0.06
2013-11-6,79,74,72,72,70,67,94,87,70,30.05,29.97,13,4,17,0.02
2013-11-7,74,74,74,70,70,70,87,87,87,29.97,29.97,0,0,0,0.00
2013-11-8,75,73,70,71,68,66,89,86,83,30.04,29.96,22,16,26,0.00
2013-11-9,77,74,73,68,65,-100,85,78,70,30.12,30.01,18,6,18,0.00
2013-11-10,78,75,72,70,68,66,92,79,69,30.09,30.02,14,3,17,0.00
2013-11-11,78,76,73,71,69,66,93,78,66,30.09,30.01,10,2,13,0.00
2013-11-12,76,74,71,71,69,68,98,85,77,30.03,29.93,12,6,14,0.00
2013-11-13,72,66,66,68,57,52,88,73,61,30.23,30.00,30,21,35,0.00
2013-11-14,72,71,66,63,59,54,73,66,60,30.23,30.11,18,4,18,0.00
2013-11-15,78,75,71,69,65,59,78,72,67,30.12,30.01,4,0,9,0.00
2013-11-16,79,75,72,73,66,-100,94,78,74,30.06,29.96,2,0,5,0.01
2013-11-17,81,78,74,75,72,70,95,83,79,30.02,29.93,8,3,14,0.01
2013-11-18,83,78,73,75,73,71,94,85,74,29.95,29.84,8,3,10,0.00
2013-11-19,77,74,72,73,70,66,91,85,79,29.89,29.80,11,5,17,0.00
2013-11-20,76,74,73,72,70,69,86,86,85,29.95,29.87,6,5,6,0.00
2013-11-21,77,76,74,72,71,71,92,85,84,30.11,30.04,6,2,16,0.13
2013-11-22,78,76,75,71,70,68,86,81,76,30.14,30.04,3,1,8,0.01
2013-11-23,79,76,72,71,67,-100,91,77,74,30.04,29.94,2,0,7,0.00
2013-11-24,71,69,67,66,64,63,90,85,79,30.15,30.01,23,19,30,0.00
2013-11-25,72,71,68,63,62,58,83,73,66,30.18,30.01,20,5,20,0.00
2013-11-26,77,73,71,74,68,63,92,83,75,30.01,29.69,6,3,12,0.02
2013-11-27,76,71,63,74,66,56,92,85,69,29.96,29.63,9,3,10,0.02
2013-11-28,64,61,53,59,57,50,89,86,83,30.22,30.14,22,15,23,0.00
2013-11-29,70,64,60,63,60,57,91,86,66,30.25,30.19,21,14,23,0.00
2013-11-30,73,67,65,67,62,-100,98,86,78,30.20,30.09,16,11,17,0.01
2013-12-1,68,68,66,67,65,64,98,92,88,30.09,29.92,16,10,18,0.01
2013-12-2,69,67,63,66,64,62,99,91,81,29.89,29.74,8,3,12,0.00
2013-12-3,73,69,62,65,63,60,97,83,72,29.92,29.81,4,0,11,0.00
2013-12-4,72,70,66,66,65,65,96,83,78,29.98,29.91,0,0,4,0.00
2013-12-5,79,74,68,72,70,67,95,87,77,30.12,30.03,1,0,5,0.00
2013-12-6,79,76,72,73,71,70,97,87,74,30.13,30.03,5,1,17,0.00
2013-12-7,79,74,70,72,68,-100,95,84,78,30.18,30.09,3,0,6,0.00
2013-12-8,80,76,74,73,71,70,91,84,79,30.17,30.06,9,1,13,0.00
2013-12-9,81,77,72,74,72,70,97,84,77,30.14,30.03,5,1,12,0.00
2013-12-10,83,78,70,73,70,67,94,77,64,30.09,30.00,7,1,11,0.00
2013-12-15,75,72,68,73,68,63,95,88,80,30.02,29.83,10,4,12,0.00
2013-12-16,70,60,54,64,55,53,96,85,82,30.12,30.02,16,10,19,0.00
2013-12-17,68,63,58,61,57,55,94,82,72,30.14,30.06,16,11,17,0.00
2013-12-18,64,63,57,58,54,48,82,75,65,30.18,30.09,17,12,20,0.00
2013-12-19,73,69,58,62,60,54,94,74,66,30.19,30.12,8,1,8,0.00
2013-12-20,78,74,64,69,67,62,94,80,72,30.15,30.06,9,1,14,0.00
2013-12-21,79,75,72,74,68,-100,97,83,78,30.09,30.00,12,1,15,0.00
2013-12-22,76,76,75,73,72,72,90,90,89,30.08,30.01,3,2,3,0.00
2013-12-23,82,77,71,75,73,70,98,89,77,30.11,30.01,7,3,17,0.00
2013-12-24,76,67,61,73,62,50,96,84,63,30.14,30.01,23,14,29,0.00
2013-12-25,72,68,62,60,58,55,79,71,62,30.16,30.08,18,6,18,0.00
2013-12-26,71,68,63,66,63,59,98,86,68,30.12,30.03,18,9,20,0.00
2013-12-27,72,69,66,69,67,64,96,93,90,30.17,30.07,16,13,17,0.00
2013-12-28,73,70,70,71,68,68,97,95,93,30.15,30.08,11,9,13,0.00
2013-12-29,76,75,74,74,73,73,96,95,93,29.91,29.81,0,0,12,0.08
2013-12-30,75,64,61,73,61,58,95,90,84,30.11,29.91,15,8,19,0.02
2013-12-31,66,64,63,59,58,57,85,80,73,30.22,30.08,18,13,20,0.00
2014-1-1,69,66,65,67,63,58,99,90,78,30.17,29.97,14,10,15,0.05
2014-1-2,80,72,67,73,69,67,100,91,70,29.96,29.73,15,7,25,0.01